sensor_id;sensor_type;location;lat;lon;timestamp;pressure;altitude;pressure_sealevel;temperature;humidity
31225;BME280;17847;31.524;74.366;2022-11-20T00:00:13;99095.84;;;16.15;73.75
31225;BME280;17847;31.524;74.366;2022-11-20T00:02:55;99092.03;;;16.28;73.64
31225;BME280;17847;31.524;74.366;2022-11-20T00:05:44;99100.41;;;16.26;74.21
31225;BME280;17847;31.524;74.366;2022-11-20T00:08:27;99107.19;;;16.00;74.11
31225;BME280;17847;31.524;74.366;2022-11-20T00:11:19;99099.66;;;16.02;74.65
31225;BME280;17847;31.524;74.366;2022-11-20T00:14:02;99110.94;;;15.99;75.13
31225;BME280;17847;31.524;74.366;2022-11-20T00:16:50;99112.97;;;16.03;74.31
31225;BME280;17847;31.524;74.366;2022-11-20T00:19:33;99107.94;;;15.83;75.33
31225;BME280;17847;31.524;74.366;2022-11-20T00:22:22;99116.03;;;15.95;74.82
31225;BME280;17847;31.524;74.366;2022-11-20T00:25:12;99110.88;;;15.94;75.18
31225;BME280;17847;31.524;74.366;2022-11-20T00:27:54;99112.13;;;16.03;74.71
31225;BME280;17847;31.524;74.366;2022-11-20T00:30:42;99107.19;;;16.00;74.18
31225;BME280;17847;31.524;74.366;2022-11-20T00:33:27;99101.06;;;16.04;73.69
31225;BME280;17847;31.524;74.366;2022-11-20T00:36:18;99106.81;;;16.08;73.70
31225;BME280;17847;31.524;74.366;2022-11-20T00:38:57;99106.22;;;16.06;73.69
31225;BME280;17847;31.524;74.366;2022-11-20T00:41:52;99109.22;;;15.93;73.53
31225;BME280;17847;31.524;74.366;2022-11-20T00:44:35;99118.66;;;15.78;74.43
31225;BME280;17847;31.524;74.366;2022-11-20T00:47:24;99108.63;;;15.91;73.71
31225;BME280;17847;31.524;74.366;2022-11-20T00:50:07;99115.78;;;15.97;73.82
31225;BME280;17847;31.524;74.366;2022-11-20T00:53:02;99116.16;;;15.89;73.58
31225;BME280;17847;31.524;74.366;2022-11-20T00:56:00;99120.41;;;15.84;74.24
31225;BME280;17847;31.524;74.366;2022-11-20T00:58:49;99121.13;;;15.92;74.04
31225;BME280;17847;31.524;74.366;2022-11-20T01:01:26;99113.69;;;15.87;74.56
31225;BME280;17847;31.524;74.366;2022-11-20T01:04:21;99116.06;;;15.83;74.51
31225;BME280;17847;31.524;74.366;2022-11-20T01:07:03;99120.31;;;15.79;73.48
31225;BME280;17847;31.524;74.366;2022-11-20T01:09:51;99127.09;;;15.82;74.42
31225;BME280;17847;31.524;74.366;2022-11-20T01:12:34;99133.13;;;15.84;74.72
31225;BME280;17847;31.524;74.366;2022-11-20T01:15:22;99134.88;;;15.90;74.48
31225;BME280;17847;31.524;74.366;2022-11-20T01:18:05;99140.63;;;15.82;74.15
31225;BME280;17847;31.524;74.366;2022-11-20T01:21:06;99137.69;;;15.72;74.18
31225;BME280;17847;31.524;74.366;2022-11-20T01:23:43;99144.19;;;15.71;74.33
31225;BME280;17847;31.524;74.366;2022-11-20T01:26:41;99141.94;;;15.79;73.77
31225;BME280;17847;31.524;74.366;2022-11-20T01:29:37;99148.19;;;15.92;72.86
31225;BME280;17847;31.524;74.366;2022-11-20T01:32:20;99151.47;;;15.94;71.99
31225;BME280;17847;31.524;74.366;2022-11-20T01:35:08;99155.22;;;15.93;72.24
31225;BME280;17847;31.524;74.366;2022-11-20T01:37:52;99170.31;;;15.89;72.57
31225;BME280;17847;31.524;74.366;2022-11-20T01:40:40;99172.63;;;15.97;71.96
31225;BME280;17847;31.524;74.366;2022-11-20T01:43:23;99172.63;;;15.97;72.67
31225;BME280;17847;31.524;74.366;2022-11-20T01:46:18;99171.44;;;16.04;72.30
31225;BME280;17847;31.524;74.366;2022-11-20T01:52:38;99178.03;;;16.20;70.86
31225;BME280;17847;31.524;74.366;2022-11-20T01:55:20;99175.31;;;16.20;71.16
31225;BME280;17847;31.524;74.366;2022-11-20T01:58:18;99184.47;;;16.19;71.55
31225;BME280;17847;31.524;74.366;2022-11-20T02:00:57;99188.97;;;16.14;71.48
31225;BME280;17847;31.524;74.366;2022-11-20T02:03:53;99193.59;;;16.01;71.89
31225;BME280;17847;31.524;74.366;2022-11-20T02:06:46;99192.41;;;16.09;71.65
31225;BME280;17847;31.524;74.366;2022-11-20T02:09:43;99202.16;;;16.10;71.83
31225;BME280;17847;31.524;74.366;2022-11-20T02:12:31;99195.78;;;16.16;71.71
31225;BME280;17847;31.524;74.366;2022-11-20T02:15:38;99210.34;;;16.39;70.99
31225;BME280;17847;31.524;74.366;2022-11-20T02:18:23;99216.91;;;16.43;70.32
31225;BME280;17847;31.524;74.366;2022-11-20T02:24:14;99217.22;;;16.58;70.76
31225;BME280;17847;31.524;74.366;2022-11-20T02:27:09;99215.72;;;16.51;70.95
31225;BME280;17847;31.524;74.366;2022-11-20T02:32:43;99218.00;;;16.82;70.52
31225;BME280;17847;31.524;74.366;2022-11-20T02:38:15;99230.63;;;17.06;69.18
31225;BME280;17847;31.524;74.366;2022-11-20T02:40:57;99224.13;;;17.07;68.63
31225;BME280;17847;31.524;74.366;2022-11-20T02:43:45;99239.34;;;17.25;68.77
31225;BME280;17847;31.524;74.366;2022-11-20T02:46:28;99239.38;;;17.41;67.97
31225;BME280;17847;31.524;74.366;2022-11-20T02:49:16;99244.97;;;17.52;66.81
31225;BME280;17847;31.524;74.366;2022-11-20T02:51:59;99251.81;;;17.54;67.15
31225;BME280;17847;31.524;74.366;2022-11-20T02:54:48;99258.72;;;17.62;67.60
31225;BME280;17847;31.524;74.366;2022-11-20T02:57:31;99265.97;;;17.73;67.49
31225;BME280;17847;31.524;74.366;2022-11-20T03:00:19;99265.09;;;17.85;67.49
31225;BME280;17847;31.524;74.366;2022-11-20T03:03:02;99272.44;;;17.72;65.67
31225;BME280;17847;31.524;74.366;2022-11-20T03:05:50;99270.88;;;17.76;65.42
31225;BME280;17847;31.524;74.366;2022-11-20T03:08:33;99275.91;;;18.02;66.37
31225;BME280;17847;31.524;74.366;2022-11-20T03:11:21;99277.72;;;17.96;64.50
31225;BME280;17847;31.524;74.366;2022-11-20T03:14:04;99280.94;;;18.10;63.30
31225;BME280;17847;31.524;74.366;2022-11-20T03:17:00;99283.88;;;18.08;61.04
31225;BME280;17847;31.524;74.366;2022-11-20T03:19:36;99289.88;;;18.27;58.33
31225;BME280;17847;31.524;74.366;2022-11-20T03:22:31;99290.91;;;18.65;57.50
31225;BME280;17847;31.524;74.366;2022-11-20T03:25:21;99291.25;;;19.18;58.38
31225;BME280;17847;31.524;74.366;2022-11-20T03:28:06;99300.91;;;19.31;57.43
31225;BME280;17847;31.524;74.366;2022-11-20T03:30:55;99302.81;;;19.90;56.91
31225;BME280;17847;31.524;74.366;2022-11-20T03:33:38;99297.34;;;19.85;54.46
31225;BME280;17847;31.524;74.366;2022-11-20T03:36:28;99299.16;;;20.11;54.26
31225;BME280;17847;31.524;74.366;2022-11-20T03:39:04;99307.78;;;20.36;54.50
31225;BME280;17847;31.524;74.366;2022-11-20T03:41:59;99303.06;;;20.68;51.01
31225;BME280;17847;31.524;74.366;2022-11-20T03:44:35;99311.69;;;21.23;49.62
31225;BME280;17847;31.524;74.366;2022-11-20T03:47:30;99310.69;;;21.55;50.14
31225;BME280;17847;31.524;74.366;2022-11-20T03:50:07;99309.31;;;21.83;47.59
31225;BME280;17847;31.524;74.366;2022-11-20T03:53:02;99314.81;;;22.95;46.41
31225;BME280;17847;31.524;74.366;2022-11-20T03:58:36;99317.13;;;22.72;45.44
31225;BME280;17847;31.524;74.366;2022-11-20T04:01:19;99318.88;;;22.32;45.01
31225;BME280;17847;31.524;74.366;2022-11-20T04:04:15;99319.34;;;22.70;45.16
31225;BME280;17847;31.524;74.366;2022-11-20T04:06:58;99316.44;;;23.06;44.08
31225;BME280;17847;31.524;74.366;2022-11-20T04:09:46;99309.66;;;22.93;44.21
31225;BME280;17847;31.524;74.366;2022-11-20T04:12:32;99314.63;;;23.36;44.63
31225;BME280;17847;31.524;74.366;2022-11-20T04:15:27;99320.28;;;23.10;43.98
31225;BME280;17847;31.524;74.366;2022-11-20T04:18:10;99322.53;;;23.42;43.30
31225;BME280;17847;31.524;74.366;2022-11-20T04:21:06;99320.13;;;23.36;42.69
31225;BME280;17847;31.524;74.366;2022-11-20T04:23:50;99329.16;;;23.36;43.04
31225;BME280;17847;31.524;74.366;2022-11-20T04:26:45;99323.69;;;23.71;43.21
31225;BME280;17847;31.524;74.366;2022-11-20T04:29:27;99332.06;;;23.50;42.86
31225;BME280;17847;31.524;74.366;2022-11-20T04:32:15;99344.03;;;24.04;44.96
31225;BME280;17847;31.524;74.366;2022-11-20T04:34:57;99335.31;;;24.26;43.42
31225;BME280;17847;31.524;74.366;2022-11-20T04:37:45;99328.28;;;23.86;41.41
31225;BME280;17847;31.524;74.366;2022-11-20T04:40:21;99332.09;;;24.19;43.53
31225;BME280;17847;31.524;74.366;2022-11-20T04:43:16;99338.59;;;23.99;41.90
31225;BME280;17847;31.524;74.366;2022-11-20T04:45:53;99338.53;;;23.25;42.22
31225;BME280;17847;31.524;74.366;2022-11-20T04:48:48;99327.41;;;23.01;42.01
31225;BME280;17847;31.524;74.366;2022-11-20T04:51:31;99333.97;;;23.05;42.53
31225;BME280;17847;31.524;74.366;2022-11-20T04:54:19;99329.28;;;23.60;42.96
31225;BME280;17847;31.524;74.366;2022-11-20T04:57:02;99325.31;;;23.37;42.53
31225;BME280;17847;31.524;74.366;2022-11-20T04:59:57;99328.97;;;22.42;43.51
31225;BME280;17847;31.524;74.366;2022-11-20T05:02:40;99323.34;;;22.88;42.59
31225;BME280;17847;31.524;74.366;2022-11-20T05:05:28;99323.34;;;22.88;44.12
31225;BME280;17847;31.524;74.366;2022-11-20T05:08:11;99321.63;;;23.13;43.84
31225;BME280;17847;31.524;74.366;2022-11-20T05:11:11;99320.66;;;23.33;42.96
31225;BME280;17847;31.524;74.366;2022-11-20T05:13:54;99308.22;;;23.11;42.32
31225;BME280;17847;31.524;74.366;2022-11-20T05:16:42;99312.88;;;23.00;42.39
31225;BME280;17847;31.524;74.366;2022-11-20T05:19:25;99299.28;;;23.35;42.30
31225;BME280;17847;31.524;74.366;2022-11-20T05:22:29;99304.03;;;23.24;41.48
31225;BME280;17847;31.524;74.366;2022-11-20T05:25:24;99300.38;;;22.84;43.21
31225;BME280;17847;31.524;74.366;2022-11-20T05:28:21;99288.81;;;22.97;42.65
31225;BME280;17847;31.524;74.366;2022-11-20T05:31:09;99287.63;;;22.59;42.88
31225;BME280;17847;31.524;74.366;2022-11-20T05:34:05;99280.75;;;23.21;43.64
31225;BME280;17847;31.524;74.366;2022-11-20T05:36:48;99278.59;;;23.23;42.49
31225;BME280;17847;31.524;74.366;2022-11-20T05:39:37;99285.72;;;23.59;42.77
31225;BME280;17847;31.524;74.366;2022-11-20T05:42:20;99293.00;;;23.74;43.12
31225;BME280;17847;31.524;74.366;2022-11-20T05:45:11;99275.50;;;23.70;42.28
31225;BME280;17847;31.524;74.366;2022-11-20T05:48:00;99273.69;;;23.55;41.27
31225;BME280;17847;31.524;74.366;2022-11-20T05:50:48;99269.41;;;23.73;41.13
31225;BME280;17847;31.524;74.366;2022-11-20T05:53:32;99279.03;;;24.04;39.52
31225;BME280;17847;31.524;74.366;2022-11-20T05:56:27;99266.97;;;23.37;40.91
31225;BME280;17847;31.524;74.366;2022-11-20T05:59:10;99269.63;;;23.87;39.59
31225;BME280;17847;31.524;74.366;2022-11-20T06:02:05;99271.94;;;24.76;39.57
31225;BME280;17847;31.524;74.366;2022-11-20T06:04:41;99267.03;;;24.54;40.04
31225;BME280;17847;31.524;74.366;2022-11-20T06:07:36;99268.59;;;24.07;38.92
31225;BME280;17847;31.524;74.366;2022-11-20T06:10:19;99268.78;;;23.86;40.13
31225;BME280;17847;31.524;74.366;2022-11-20T06:13:07;99257.59;;;24.12;40.33
31225;BME280;17847;31.524;74.366;2022-11-20T06:15:51;99257.66;;;24.55;40.66
31225;BME280;17847;31.524;74.366;2022-11-20T06:18:40;99252.69;;;24.57;39.10
31225;BME280;17847;31.524;74.366;2022-11-20T06:21:23;99250.91;;;24.90;38.08
31225;BME280;17847;31.524;74.366;2022-11-20T06:24:18;99249.06;;;25.24;39.75
31225;BME280;17847;31.524;74.366;2022-11-20T06:27:06;99248.81;;;25.58;38.43
31225;BME280;17847;31.524;74.366;2022-11-20T06:29:49;99238.16;;;24.80;38.48
31225;BME280;17847;31.524;74.366;2022-11-20T06:32:37;99230.19;;;24.79;37.71
31225;BME280;17847;31.524;74.366;2022-11-20T06:35:20;99224.63;;;24.65;38.34
31225;BME280;17847;31.524;74.366;2022-11-20T06:38:08;99221.28;;;24.68;39.42
31225;BME280;17847;31.524;74.366;2022-11-20T06:40:51;99221.34;;;24.39;40.22
31225;BME280;17847;31.524;74.366;2022-11-20T06:43:40;99219.78;;;24.57;38.88
31225;BME280;17847;31.524;74.366;2022-11-20T06:46:22;99203.91;;;24.54;38.02
31225;BME280;17847;31.524;74.366;2022-11-20T06:49:17;99207.44;;;24.78;39.52
31225;BME280;17847;31.524;74.366;2022-11-20T06:52:00;99207.41;;;24.35;37.66
31225;BME280;17847;31.524;74.366;2022-11-20T06:54:55;99197.19;;;24.65;37.80
31225;BME280;17847;31.524;74.366;2022-11-20T06:57:31;99198.94;;;24.56;37.95
31225;BME280;17847;31.524;74.366;2022-11-20T07:00:32;99199.13;;;24.40;38.82
31225;BME280;17847;31.524;74.366;2022-11-20T07:03:14;99187.16;;;24.74;38.00
31225;BME280;17847;31.524;74.366;2022-11-20T07:06:04;99182.41;;;24.80;38.08
31225;BME280;17847;31.524;74.366;2022-11-20T07:08:41;99182.34;;;24.85;38.22
31225;BME280;17847;31.524;74.366;2022-11-20T07:11:36;99168.22;;;25.30;37.41
31225;BME280;17847;31.524;74.366;2022-11-20T07:14:18;99163.28;;;24.94;37.34
31225;BME280;17847;31.524;74.366;2022-11-20T07:17:06;99155.97;;;25.55;38.18
31225;BME280;17847;31.524;74.366;2022-11-20T07:19:48;99157.44;;;25.14;38.71
31225;BME280;17847;31.524;74.366;2022-11-20T07:22:36;99153.16;;;25.08;36.95
31225;BME280;17847;31.524;74.366;2022-11-20T07:25:27;99141.88;;;25.29;37.40
31225;BME280;17847;31.524;74.366;2022-11-20T07:28:22;99137.91;;;24.83;37.25
31225;BME280;17847;31.524;74.366;2022-11-20T07:30:58;99139.13;;;25.29;37.91
31225;BME280;17847;31.524;74.366;2022-11-20T07:33:58;99128.59;;;25.50;37.72
31225;BME280;17847;31.524;74.366;2022-11-20T07:36:34;99127.19;;;25.66;37.43
31225;BME280;17847;31.524;74.366;2022-11-20T07:39:29;99122.16;;;25.54;37.77
31225;BME280;17847;31.524;74.366;2022-11-20T07:42:12;99111.66;;;25.43;37.10
31225;BME280;17847;31.524;74.366;2022-11-20T07:45:03;99104.72;;;25.31;38.37
31225;BME280;17847;31.524;74.366;2022-11-20T07:47:45;99101.59;;;25.38;37.21
31225;BME280;17847;31.524;74.366;2022-11-20T07:50:33;99102.72;;;25.51;37.07
31225;BME280;17847;31.524;74.366;2022-11-20T07:53:16;99097.41;;;25.27;37.28
31225;BME280;17847;31.524;74.366;2022-11-20T07:56:08;99099.19;;;25.78;36.75
31225;BME280;17847;31.524;74.366;2022-11-20T07:58:51;99089.72;;;25.84;35.85
31225;BME280;17847;31.524;74.366;2022-11-20T08:01:40;99084.03;;;25.94;37.00
31225;BME280;17847;31.524;74.366;2022-11-20T08:04:22;99077.28;;;25.45;36.50
31225;BME280;17847;31.524;74.366;2022-11-20T08:07:10;99082.78;;;25.45;37.25
31225;BME280;17847;31.524;74.366;2022-11-20T08:09:53;99086.97;;;25.70;35.47
31225;BME280;17847;31.524;74.366;2022-11-20T08:12:50;99078.91;;;25.60;36.98
31225;BME280;17847;31.524;74.366;2022-11-20T08:15:51;99067.31;;;25.63;36.42
31225;BME280;17847;31.524;74.366;2022-11-20T08:18:39;99065.78;;;25.98;37.24
31225;BME280;17847;31.524;74.366;2022-11-20T08:21:22;99067.84;;;26.07;36.60
31225;BME280;17847;31.524;74.366;2022-11-20T08:24:18;99063.47;;;25.92;35.97
31225;BME280;17847;31.524;74.366;2022-11-20T08:27:07;99056.06;;;26.29;35.40
31225;BME280;17847;31.524;74.366;2022-11-20T08:30:03;99052.44;;;26.06;36.00
31225;BME280;17847;31.524;74.366;2022-11-20T08:32:46;99054.88;;;26.07;35.85
31225;BME280;17847;31.524;74.366;2022-11-20T08:35:36;99053.03;;;25.89;35.44
31225;BME280;17847;31.524;74.366;2022-11-20T08:38:20;99053.81;;;26.31;35.85
31225;BME280;17847;31.524;74.366;2022-11-20T08:41:08;99044.94;;;25.97;35.52
31225;BME280;17847;31.524;74.366;2022-11-20T08:44:08;99048.16;;;26.13;36.15
31225;BME280;17847;31.524;74.366;2022-11-20T08:46:56;99043.44;;;26.28;35.00
31225;BME280;17847;31.524;74.366;2022-11-20T08:49:39;99033.94;;;25.97;34.96
31225;BME280;17847;31.524;74.366;2022-11-20T08:52:34;99036.09;;;26.23;36.32
31225;BME280;17847;31.524;74.366;2022-11-20T08:55:17;99028.53;;;25.92;36.19
31225;BME280;17847;31.524;74.366;2022-11-20T08:58:12;99019.97;;;25.80;35.79
31225;BME280;17847;31.524;74.366;2022-11-20T09:00:55;99013.97;;;25.92;35.51
31225;BME280;17847;31.524;74.366;2022-11-20T09:03:43;99019.72;;;26.18;36.54
31225;BME280;17847;31.524;74.366;2022-11-20T09:06:26;99009.38;;;25.87;36.04
31225;BME280;17847;31.524;74.366;2022-11-20T09:09:14;99009.56;;;26.05;36.04
31225;BME280;17847;31.524;74.366;2022-11-20T09:11:57;99010.38;;;26.05;35.97
31225;BME280;17847;31.524;74.366;2022-11-20T09:14:52;98998.28;;;25.78;35.80
31225;BME280;17847;31.524;74.366;2022-11-20T09:17:35;99006.75;;;25.68;35.26
31225;BME280;17847;31.524;74.366;2022-11-20T09:20:24;98986.84;;;25.85;35.76
31225;BME280;17847;31.524;74.366;2022-11-20T09:23:07;98987.88;;;25.89;34.89
31225;BME280;17847;31.524;74.366;2022-11-20T09:25:55;98993.19;;;25.86;35.55
31225;BME280;17847;31.524;74.366;2022-11-20T09:28:41;98988.81;;;25.71;35.92
31225;BME280;17847;31.524;74.366;2022-11-20T09:31:49;98991.16;;;25.64;35.93
31225;BME280;17847;31.524;74.366;2022-11-20T09:34:32;98978.59;;;25.85;36.37
31225;BME280;17847;31.524;74.366;2022-11-20T09:37:20;98979.56;;;25.67;34.90
31225;BME280;17847;31.524;74.366;2022-11-20T09:40:03;98966.50;;;25.86;35.81
31225;BME280;17847;31.524;74.366;2022-11-20T09:43:36;98966.56;;;25.58;34.53
31225;BME280;17847;31.524;74.366;2022-11-20T09:55:31;98971.25;;;25.44;34.45
31225;BME280;17847;31.524;74.366;2022-11-20T10:01:23;98967.56;;;25.63;34.68
31225;BME280;17847;31.524;74.366;2022-11-20T10:08:04;98960.19;;;25.72;35.13
31225;BME280;17847;31.524;74.366;2022-11-20T10:16:32;98957.91;;;25.51;36.28
31225;BME280;17847;31.524;74.366;2022-11-20T10:25:18;98959.03;;;25.23;35.78
31225;BME280;17847;31.524;74.366;2022-11-20T10:31:31;98949.69;;;25.37;36.06
31225;BME280;17847;31.524;74.366;2022-11-20T10:37:42;98946.69;;;25.20;36.32
31225;BME280;17847;31.524;74.366;2022-11-20T10:40:31;98949.34;;;25.11;36.99
31225;BME280;17847;31.524;74.366;2022-11-20T10:43:33;98942.63;;;24.90;36.80
31225;BME280;17847;31.524;74.366;2022-11-20T10:46:22;98935.78;;;24.87;37.52
31225;BME280;17847;31.524;74.366;2022-11-20T10:49:20;98939.47;;;25.10;38.12
31225;BME280;17847;31.524;74.366;2022-11-20T11:00:40;98935.03;;;24.68;39.12
31225;BME280;17847;31.524;74.366;2022-11-20T11:03:27;98938.88;;;24.53;38.88
31225;BME280;17847;31.524;74.366;2022-11-20T11:06:36;98941.84;;;24.70;39.82
31225;BME280;17847;31.524;74.366;2022-11-20T11:09:28;98941.06;;;24.51;40.56
31225;BME280;17847;31.524;74.366;2022-11-20T11:12:18;98941.03;;;24.56;39.46
31225;BME280;17847;31.524;74.366;2022-11-20T11:15:01;98932.19;;;24.40;40.45
31225;BME280;17847;31.524;74.366;2022-11-20T11:17:57;98937.78;;;24.35;40.40
31225;BME280;17847;31.524;74.366;2022-11-20T11:20:50;98937.03;;;24.29;41.54
31225;BME280;17847;31.524;74.366;2022-11-20T11:23:41;98940.28;;;24.31;41.33
31225;BME280;17847;31.524;74.366;2022-11-20T11:26:22;98933.56;;;24.23;41.58
31225;BME280;17847;31.524;74.366;2022-11-20T11:29:18;98932.47;;;24.06;42.88
31225;BME280;17847;31.524;74.366;2022-11-20T11:32:11;98930.41;;;23.97;42.96
31225;BME280;17847;31.524;74.366;2022-11-20T11:35:05;98942.31;;;23.88;44.09
31225;BME280;17847;31.524;74.366;2022-11-20T11:37:48;98943.59;;;23.71;44.07
31225;BME280;17847;31.524;74.366;2022-11-20T11:40:39;98950.50;;;23.69;45.41
31225;BME280;17847;31.524;74.366;2022-11-20T11:43:28;98952.97;;;23.46;45.66
31225;BME280;17847;31.524;74.366;2022-11-20T11:46:37;98940.31;;;23.31;46.97
31225;BME280;17847;31.524;74.366;2022-11-20T11:49:20;98937.97;;;23.19;47.15
31225;BME280;17847;31.524;74.366;2022-11-20T11:52:21;98942.16;;;23.12;47.03
31225;BME280;17847;31.524;74.366;2022-11-20T11:55:10;98941.75;;;22.99;46.92
31225;BME280;17847;31.524;74.366;2022-11-20T12:01:32;98949.44;;;22.68;48.54
31225;BME280;17847;31.524;74.366;2022-11-20T12:04:46;98953.28;;;22.67;47.94
31225;BME280;17847;31.524;74.366;2022-11-20T12:10:37;98958.00;;;22.56;48.12
31225;BME280;17847;31.524;74.366;2022-11-20T12:16:18;98958.66;;;22.43;47.35
31225;BME280;17847;31.524;74.366;2022-11-20T12:19:01;98953.53;;;22.36;47.42
31225;BME280;17847;31.524;74.366;2022-11-20T12:30:33;98960.81;;;22.06;47.56
31225;BME280;17847;31.524;74.366;2022-11-20T12:33:57;98956.22;;;22.02;48.48
31225;BME280;17847;31.524;74.366;2022-11-20T12:36:56;98956.31;;;21.86;48.19
31225;BME280;17847;31.524;74.366;2022-11-20T12:39:49;98964.56;;;21.76;49.73
31225;BME280;17847;31.524;74.366;2022-11-20T12:46:03;98966.56;;;21.55;51.40
31225;BME280;17847;31.524;74.366;2022-11-20T12:49:11;98958.41;;;21.50;50.87
31225;BME280;17847;31.524;74.366;2022-11-20T12:52:12;98964.69;;;21.50;50.77
31225;BME280;17847;31.524;74.366;2022-11-20T12:55:56;98959.53;;;21.44;51.40
31225;BME280;17847;31.524;74.366;2022-11-20T12:58:44;98963.06;;;21.39;50.60
31225;BME280;17847;31.524;74.366;2022-11-20T13:01:49;98963.63;;;21.36;49.28
31225;BME280;17847;31.524;74.366;2022-11-20T13:07:28;98964.50;;;21.16;50.70
31225;BME280;17847;31.524;74.366;2022-11-20T13:13:47;98977.13;;;20.97;51.58
31225;BME280;17847;31.524;74.366;2022-11-20T13:19:28;98976.31;;;20.86;52.73
31225;BME280;17847;31.524;74.366;2022-11-20T13:22:24;98980.41;;;20.83;53.09
31225;BME280;17847;31.524;74.366;2022-11-20T13:25:09;98984.78;;;20.64;53.88
31225;BME280;17847;31.524;74.366;2022-11-20T13:30:54;98983.66;;;20.44;53.78
31225;BME280;17847;31.524;74.366;2022-11-20T13:33:45;98989.94;;;20.45;54.69
31225;BME280;17847;31.524;74.366;2022-11-20T13:36:27;98983.09;;;20.42;54.68
31225;BME280;17847;31.524;74.366;2022-11-20T13:39:29;98991.56;;;20.36;55.17
31225;BME280;17847;31.524;74.366;2022-11-20T13:45:08;98994.56;;;20.24;55.33
31225;BME280;17847;31.524;74.366;2022-11-20T13:47:52;98997.28;;;20.19;55.53
31225;BME280;17847;31.524;74.366;2022-11-20T14:00:12;99003.78;;;19.97;55.66
31225;BME280;17847;31.524;74.366;2022-11-20T14:03:09;99002.69;;;19.93;56.01
31225;BME280;17847;31.524;74.366;2022-11-20T14:05:56;99012.44;;;19.84;56.36
31225;BME280;17847;31.524;74.366;2022-11-20T14:08:55;99017.06;;;19.78;57.14
31225;BME280;17847;31.524;74.366;2022-11-20T14:11:46;99016.78;;;19.74;57.10
31225;BME280;17847;31.524;74.366;2022-11-20T14:14:49;99019.75;;;19.73;57.47
31225;BME280;17847;31.524;74.366;2022-11-20T14:17:34;99017.25;;;19.71;57.52
31225;BME280;17847;31.524;74.366;2022-11-20T14:20:32;99016.16;;;19.67;58.22
31225;BME280;17847;31.524;74.366;2022-11-20T14:23:27;99030.28;;;19.59;58.65
31225;BME280;17847;31.524;74.366;2022-11-20T14:26:17;99021.88;;;19.66;58.60
31225;BME280;17847;31.524;74.366;2022-11-20T14:29:02;99024.25;;;19.52;58.29
31225;BME280;17847;31.524;74.366;2022-11-20T14:31:53;99028.88;;;19.46;58.51
31225;BME280;17847;31.524;74.366;2022-11-20T14:34:39;99031.78;;;19.34;59.17
31225;BME280;17847;31.524;74.366;2022-11-20T14:37:38;99029.34;;;19.33;59.17
31225;BME280;17847;31.524;74.366;2022-11-20T14:40:33;99031.28;;;19.38;59.41
31225;BME280;17847;31.524;74.366;2022-11-20T14:43:28;99030.16;;;19.33;60.08
31225;BME280;17847;31.524;74.366;2022-11-20T14:46:12;99029.50;;;19.16;60.58
31225;BME280;17847;31.524;74.366;2022-11-20T14:49:03;99037.97;;;19.20;60.80
31225;BME280;17847;31.524;74.366;2022-11-20T14:51:40;99037.91;;;19.09;61.48
31225;BME280;17847;31.524;74.366;2022-11-20T14:54:46;99033.88;;;19.17;61.25
31225;BME280;17847;31.524;74.366;2022-11-20T14:57:31;99041.44;;;19.10;61.37
31225;BME280;17847;31.524;74.366;2022-11-20T15:00:21;99038.13;;;19.03;61.35
31225;BME280;17847;31.524;74.366;2022-11-20T15:02:57;99040.03;;;19.02;62.18
31225;BME280;17847;31.524;74.366;2022-11-20T15:05:52;99037.00;;;18.98;61.46
31225;BME280;17847;31.524;74.366;2022-11-20T15:08:35;99036.41;;;18.91;62.25
31225;BME280;17847;31.524;74.366;2022-11-20T15:11:29;99047.28;;;18.91;62.37
31225;BME280;17847;31.524;74.366;2022-11-20T15:14:12;99037.25;;;18.92;62.63
31225;BME280;17847;31.524;74.366;2022-11-20T15:17:09;99038.25;;;18.86;63.03
31225;BME280;17847;31.524;74.366;2022-11-20T15:19:53;99040.72;;;18.82;63.00
31225;BME280;17847;31.524;74.366;2022-11-20T15:22:43;99046.72;;;18.84;62.00
31225;BME280;17847;31.524;74.366;2022-11-20T15:25:26;99042.84;;;18.80;62.33
31225;BME280;17847;31.524;74.366;2022-11-20T15:31:03;99040.44;;;18.84;62.80
31225;BME280;17847;31.524;74.366;2022-11-20T15:33:58;99043.59;;;18.75;63.45
31225;BME280;17847;31.524;74.366;2022-11-20T15:36:34;99047.13;;;18.71;63.08
31225;BME280;17847;31.524;74.366;2022-11-20T15:39:32;99047.31;;;18.64;63.61
31225;BME280;17847;31.524;74.366;2022-11-20T15:42:15;99056.25;;;18.59;63.67
31225;BME280;17847;31.524;74.366;2022-11-20T15:45:04;99049.97;;;18.59;63.67
31225;BME280;17847;31.524;74.366;2022-11-20T15:47:46;99046.41;;;18.53;64.58
31225;BME280;17847;31.524;74.366;2022-11-20T15:51:03;99048.28;;;18.53;64.05
31225;BME280;17847;31.524;74.366;2022-11-20T15:53:44;99050.69;;;18.44;64.23
31225;BME280;17847;31.524;74.366;2022-11-20T15:56:32;99046.31;;;18.43;64.45
31225;BME280;17847;31.524;74.366;2022-11-20T15:59:15;99050.41;;;18.46;64.23
31225;BME280;17847;31.524;74.366;2022-11-20T16:02:11;99049.63;;;18.50;64.39
31225;BME280;17847;31.524;74.366;2022-11-20T16:04:54;99056.63;;;18.41;64.87
31225;BME280;17847;31.524;74.366;2022-11-20T16:07:43;99055.84;;;18.46;64.52
31225;BME280;17847;31.524;74.366;2022-11-20T16:10:25;99056.06;;;18.39;65.29
31225;BME280;17847;31.524;74.366;2022-11-20T16:13:20;99046.78;;;18.35;65.47
31225;BME280;17847;31.524;74.366;2022-11-20T16:16:23;99053.59;;;18.37;64.92
31225;BME280;17847;31.524;74.366;2022-11-20T16:19:20;99049.19;;;18.31;65.87
31225;BME280;17847;31.524;74.366;2022-11-20T16:22:02;99059.75;;;18.28;65.54
31225;BME280;17847;31.524;74.366;2022-11-20T16:24:51;99056.47;;;18.26;66.04
31225;BME280;17847;31.524;74.366;2022-11-20T16:27:27;99061.44;;;18.34;65.46
31225;BME280;17847;31.524;74.366;2022-11-20T16:30:23;99053.56;;;18.32;65.28